Time;durP1;ratioP1;P1;durP2;ratioP2;P2;SDS_P1;SDS_P2;PMS_P1;PMS_P2;Temp;Humidity;BMP_temperature;BMP_pressure;BME280_temperature;BME280_humidity;BME280_pressure;Samples;Min_cycle;Max_cycle;Signal;HPM_P1;HPM_P2
2020/12/06 00:00:34;;;;;;;22.42;20.30;;;;;;;;;;4943291;29;20185;-76
2020/12/06 00:03:00;;;;;;;26.50;20.48;;;;;;;;;;4943385;29;20170;-76
2020/12/06 00:05:27;;;;;;;23.83;21.40;;;;;;;;;;4944429;28;20181;-75
2020/12/06 00:07:53;;;;;;;30.63;21.98;;;;;;;;;;4942710;29;20194;-77
2020/12/06 00:10:19;;;;;;;30.27;23.95;;;;;;;;;;4942401;29;20185;-76
2020/12/06 00:12:46;;;;;;;33.38;26.33;;;;;;;;;;4926918;29;20197;-76
2020/12/06 00:15:13;;;;;;;31.83;27.20;;;;;;;;;;4959825;29;20178;-77
2020/12/06 00:17:39;;;;;;;32.05;26.52;;;;;;;;;;4960548;28;20188;-76
2020/12/06 00:20:06;;;;;;;33.22;24.90;;;;;;;;;;4943147;29;20213;-76
2020/12/06 00:22:32;;;;;;;30.92;24.33;;;;;;;;;;4960248;29;20243;-75
2020/12/06 00:24:59;;;;;;;26.63;22.55;;;;;;;;;;4942658;29;20194;-76
2020/12/06 00:27:25;;;;;;;29.80;25.60;;;;;;;;;;4942334;29;20197;-76
2020/12/06 00:29:51;;;;;;;28.13;22.52;;;;;;;;;;4960105;29;20221;-75
2020/12/06 00:32:17;;;;;;;26.63;23.40;;;;;;;;;;4959565;29;20654;-77
2020/12/06 00:34:43;;;;;;;27.85;23.98;;;;;;;;;;4959445;29;20165;-75
2020/12/06 00:37:10;;;;;;;28.10;22.42;;;;;;;;;;4959745;28;20181;-76
2020/12/06 00:39:36;;;;;;;32.72;25.27;;;;;;;;;;4959565;29;20591;-76
2020/12/06 00:42:02;;;;;;;29.38;26.10;;;;;;;;;;4959111;29;20174;-76
2020/12/06 00:44:28;;;;;;;31.40;25.98;;;;;;;;;;4941990;29;20225;-76
2020/12/06 00:46:57;;;;;;;31.52;28.00;;;;;;;;;;4942373;29;20204;-77
2020/12/06 00:49:24;;;;;;;32.55;27.08;;;;;;;;;;4926516;29;20210;-76
2020/12/06 00:51:50;;;;;;;39.53;30.60;;;;;;;;;;4941913;29;20261;-76
2020/12/06 00:54:16;;;;;;;36.95;30.45;;;;;;;;;;4942293;29;20583;-76
2020/12/06 00:56:43;;;;;;;38.45;29.67;;;;;;;;;;4959359;28;20190;-76
2020/12/06 00:59:09;;;;;;;34.42;30.73;;;;;;;;;;4959161;29;20513;-75
2020/12/06 01:01:39;;;;;;;32.63;29.00;;;;;;;;;;4942255;29;20663;-76
2020/12/06 01:04:05;;;;;;;41.47;31.60;;;;;;;;;;4959317;29;20162;-76
2020/12/06 01:06:31;;;;;;;38.90;30.27;;;;;;;;;;4959041;28;20197;-77
2020/12/06 01:08:57;;;;;;;42.42;32.03;;;;;;;;;;4942137;29;20249;-75
2020/12/06 01:11:23;;;;;;;40.70;30.85;;;;;;;;;;4941674;29;20301;-77
2020/12/06 01:13:49;;;;;;;40.90;31.80;;;;;;;;;;4958834;29;20166;-75
2020/12/06 01:16:16;;;;;;;42.95;31.58;;;;;;;;;;4941813;29;20201;-75
2020/12/06 01:18:42;;;;;;;41.63;33.45;;;;;;;;;;4958587;29;20658;-76
2020/12/06 01:21:11;;;;;;;37.78;30.88;;;;;;;;;;4958432;29;20166;-76
2020/12/06 01:23:37;;;;;;;39.70;34.75;;;;;;;;;;4958143;29;20228;-76
2020/12/06 01:26:04;;;;;;;37.08;32.88;;;;;;;;;;4958618;28;20268;-75
2020/12/06 01:28:30;;;;;;;39.92;30.10;;;;;;;;;;4957756;28;20204;-76
2020/12/06 01:30:56;;;;;;;35.63;31.40;;;;;;;;;;4958732;29;20162;-76
2020/12/06 01:33:22;;;;;;;41.72;30.27;;;;;;;;;;4940746;29;20233;-76
2020/12/06 01:35:48;;;;;;;38.00;31.48;;;;;;;;;;4942029;28;20649;-75
2020/12/06 01:38:14;;;;;;;35.50;28.80;;;;;;;;;;4942016;29;20307;-76
2020/12/06 01:40:41;;;;;;;37.17;31.23;;;;;;;;;;4958589;28;20166;-75
2020/12/06 01:43:08;;;;;;;38.15;28.63;;;;;;;;;;4958526;29;20170;-75
2020/12/06 01:45:34;;;;;;;37.13;29.63;;;;;;;;;;4941157;28;20188;-77
2020/12/06 01:48:00;;;;;;;38.08;31.52;;;;;;;;;;4958525;29;20202;-76
2020/12/06 01:50:26;;;;;;;36.78;32.20;;;;;;;;;;4959710;29;20181;-76
2020/12/06 01:52:52;;;;;;;44.28;30.42;;;;;;;;;;4941107;29;20684;-76
2020/12/06 01:55:19;;;;;;;37.42;30.15;;;;;;;;;;4982065;23;20276;-77
2020/12/06 01:57:45;;;;;;;33.55;29.77;;;;;;;;;;4923745;29;20181;-77
2020/12/06 02:00:11;;;;;;;35.70;31.35;;;;;;;;;;4957379;29;20170;-77
2020/12/06 02:02:37;;;;;;;44.38;34.60;;;;;;;;;;4940495;29;20222;-77
2020/12/06 02:05:04;;;;;;;37.63;33.25;;;;;;;;;;4956959;28;20236;-78
2020/12/06 02:07:32;;;;;;;40.85;32.22;;;;;;;;;;4956495;29;20190;-77
2020/12/06 02:09:59;;;;;;;41.35;31.92;;;;;;;;;;4955993;28;20174;-77
2020/12/06 02:12:25;;;;;;;39.15;32.47;;;;;;;;;;4939789;29;20170;-77
2020/12/06 02:14:51;;;;;;;46.17;33.55;;;;;;;;;;4956878;28;20661;-76
2020/12/06 02:17:17;;;;;;;38.20;32.10;;;;;;;;;;4960742;29;20486;-78
2020/12/06 02:19:44;;;;;;;42.20;31.75;;;;;;;;;;4960964;28;20536;-78
2020/12/06 02:22:10;;;;;;;43.35;32.45;;;;;;;;;;4963418;28;20207;-78
2020/12/06 02:24:36;;;;;;;36.65;32.22;;;;;;;;;;4948022;28;20201;-76
2020/12/06 02:27:02;;;;;;;39.80;31.75;;;;;;;;;;4942529;29;20262;-77
2020/12/06 02:29:28;;;;;;;42.50;36.63;;;;;;;;;;4942709;29;20208;-78
2020/12/06 02:31:54;;;;;;;41.60;33.55;;;;;;;;;;4943926;29;20167;-77
2020/12/06 02:34:20;;;;;;;46.65;35.15;;;;;;;;;;4960587;28;20221;-77
2020/12/06 02:36:46;;;;;;;41.70;34.08;;;;;;;;;;4960594;28;20256;-77
2020/12/06 02:39:13;;;;;;;43.85;33.55;;;;;;;;;;4942976;29;20654;-78
2020/12/06 02:41:41;;;;;;;45.10;33.78;;;;;;;;;;4943189;29;20182;-77
2020/12/06 02:44:08;;;;;;;55.30;34.17;;;;;;;;;;4927784;29;20196;-78
2020/12/06 02:46:34;;;;;;;40.92;33.08;;;;;;;;;;4943708;29;20190;-77
2020/12/06 02:49:00;;;;;;;40.03;30.73;;;;;;;;;;4960960;28;20279;-77
2020/12/06 02:51:26;;;;;;;38.80;30.77;;;;;;;;;;4942887;29;20237;-76
2020/12/06 02:53:53;;;;;;;40.47;32.35;;;;;;;;;;4959044;28;20249;-77
2020/12/06 02:56:19;;;;;;;37.28;29.65;;;;;;;;;;4942116;29;20206;-77
2020/12/06 02:58:45;;;;;;;35.58;31.90;;;;;;;;;;4960170;29;20174;-77
2020/12/06 03:01:12;;;;;;;36.50;30.20;;;;;;;;;;4927802;29;20552;-77
2020/12/06 03:03:39;;;;;;;39.38;33.20;;;;;;;;;;4959388;29;20261;-77
2020/12/06 03:06:05;;;;;;;46.00;35.88;;;;;;;;;;4941480;29;20213;-77
2020/12/06 03:08:31;;;;;;;37.20;32.38;;;;;;;;;;4958400;28;20198;-77
2020/12/06 03:10:57;;;;;;;46.13;31.30;;;;;;;;;;4959006;29;20594;-77
2020/12/06 03:13:23;;;;;;;45.78;31.45;;;;;;;;;;4958840;29;20201;-77
2020/12/06 03:15:49;;;;;;;42.05;30.27;;;;;;;;;;4962105;28;20189;-78
2020/12/06 03:18:16;;;;;;;33.90;30.23;;;;;;;;;;4959582;28;20162;-77
2020/12/06 03:20:42;;;;;;;39.70;31.08;;;;;;;;;;4942929;29;20249;-77
2020/12/06 03:23:08;;;;;;;35.35;30.75;;;;;;;;;;4959111;28;20181;-77
2020/12/06 03:25:34;;;;;;;31.67;27.40;;;;;;;;;;4959741;28;20197;-77
2020/12/06 03:28:00;;;;;;;39.83;30.98;;;;;;;;;;4958676;29;20202;-77
2020/12/06 03:30:26;;;;;;;36.28;32.55;;;;;;;;;;4959815;28;20162;-77
2020/12/06 03:32:52;;;;;;;39.90;32.70;;;;;;;;;;4958914;28;20166;-77
2020/12/06 03:35:18;;;;;;;30.52;26.38;;;;;;;;;;4942902;29;20182;-77
2020/12/06 03:37:44;;;;;;;34.03;28.73;;;;;;;;;;4959248;28;20166;-77
2020/12/06 03:40:11;;;;;;;33.55;25.42;;;;;;;;;;4958825;29;20193;-77
2020/12/06 03:42:37;;;;;;;31.67;28.05;;;;;;;;;;4959483;29;20170;-77
2020/12/06 03:45:04;;;;;;;32.83;26.08;;;;;;;;;;4941589;29;20217;-77
2020/12/06 03:47:30;;;;;;;38.33;27.20;;;;;;;;;;4959702;29;20170;-78
2020/12/06 03:49:56;;;;;;;36.65;26.77;;;;;;;;;;4942467;29;20170;-77
2020/12/06 03:52:22;;;;;;;30.33;24.38;;;;;;;;;;4942105;29;20162;-77
2020/12/06 03:54:48;;;;;;;34.55;27.55;;;;;;;;;;4959019;28;20471;-77
2020/12/06 03:57:15;;;;;;;30.92;24.85;;;;;;;;;;4941692;29;20189;-78
2020/12/06 03:59:41;;;;;;;26.75;23.98;;;;;;;;;;4959223;28;20178;-78
2020/12/06 04:02:08;;;;;;;37.50;25.70;;;;;;;;;;4958917;29;20162;-78
2020/12/06 04:04:34;;;;;;;39.40;28.73;;;;;;;;;;4941679;29;20272;-77
2020/12/06 04:07:00;;;;;;;25.80;22.92;;;;;;;;;;4941247;29;20713;-78
2020/12/06 04:09:26;;;;;;;29.00;25.30;;;;;;;;;;4941527;29;20200;-78
2020/12/06 04:11:52;;;;;;;31.52;24.63;;;;;;;;;;4941390;29;20176;-77
2020/12/06 04:14:18;;;;;;;29.38;24.52;;;;;;;;;;4958449;29;20166;-77
2020/12/06 04:16:44;;;;;;;28.60;25.50;;;;;;;;;;4958203;28;20538;-77
2020/12/06 04:19:10;;;;;;;28.35;24.85;;;;;;;;;;4941302;29;20526;-77
2020/12/06 04:21:36;;;;;;;29.73;25.85;;;;;;;;;;4940815;29;20686;-78
2020/12/06 04:24:03;;;;;;;26.77;23.70;;;;;;;;;;4959035;28;20229;-77
2020/12/06 04:26:29;;;;;;;31.35;24.27;;;;;;;;;;4958198;28;20198;-77
2020/12/06 04:28:57;;;;;;;32.08;25.95;;;;;;;;;;4941040;29;20210;-77
2020/12/06 04:31:23;;;;;;;28.65;25.55;;;;;;;;;;4956964;29;20717;-77
2020/12/06 04:33:49;;;;;;;27.48;22.98;;;;;;;;;;4956587;28;20197;-77
2020/12/06 04:36:16;;;;;;;29.23;23.95;;;;;;;;;;4939528;29;20213;-77
2020/12/06 04:38:42;;;;;;;37.20;26.20;;;;;;;;;;4957133;28;20174;-77
2020/12/06 04:41:08;;;;;;;30.17;25.45;;;;;;;;;;4956338;28;20192;-77
2020/12/06 04:43:35;;;;;;;30.42;25.45;;;;;;;;;;4938305;29;20169;-76
2020/12/06 04:46:01;;;;;;;30.15;27.05;;;;;;;;;;4956520;28;20186;-77
2020/12/06 04:48:34;;;;;;;32.13;25.80;;;;;;;;;;4956772;29;20224;-78
2020/12/06 04:51:04;;;;;;;32.45;25.10;;;;;;;;;;4940389;29;20159;-77
2020/12/06 04:53:35;;;;;;;32.00;26.42;;;;;;;;;;4958106;29;20569;-78
2020/12/06 04:56:02;;;;;;;30.50;25.02;;;;;;;;;;4940680;29;20240;-78
2020/12/06 04:58:29;;;;;;;37.63;27.55;;;;;;;;;;4940904;29;20260;-77
2020/12/06 05:00:55;;;;;;;31.98;25.27;;;;;;;;;;4957892;28;20208;-77
2020/12/06 05:03:26;;;;;;;33.22;27.40;;;;;;;;;;4924188;29;20654;-77
2020/12/06 05:05:52;;;;;;;34.92;27.65;;;;;;;;;;4940040;29;20205;-77
2020/12/06 05:08:18;;;;;;;30.88;25.58;;;;;;;;;;4939786;29;20206;-77
2020/12/06 05:10:46;;;;;;;32.40;25.50;;;;;;;;;;4940104;29;20543;-76
2020/12/06 05:13:13;;;;;;;33.85;26.05;;;;;;;;;;4957156;28;20172;-77
2020/12/06 05:15:39;;;;;;;32.40;28.52;;;;;;;;;;4939644;29;20197;-77
2020/12/06 05:18:06;;;;;;;30.55;26.80;;;;;;;;;;4940871;29;20292;-78
2020/12/06 05:20:33;;;;;;;34.75;25.55;;;;;;;;;;4956570;29;20177;-76
2020/12/06 05:22:59;;;;;;;35.63;26.63;;;;;;;;;;4956647;29;20170;-76
2020/12/06 05:25:25;;;;;;;29.23;25.60;;;;;;;;;;4955597;28;20193;-76
2020/12/06 05:27:51;;;;;;;29.70;25.40;;;;;;;;;;4956446;28;20198;-76
2020/12/06 05:30:17;;;;;;;31.23;27.05;;;;;;;;;;4938414;29;20216;-76
2020/12/06 05:32:44;;;;;;;32.63;26.45;;;;;;;;;;4939377;29;20586;-77
2020/12/06 05:35:11;;;;;;;36.53;27.83;;;;;;;;;;4957618;28;20205;-77
2020/12/06 05:37:38;;;;;;;34.58;26.05;;;;;;;;;;4957545;28;20166;-77
2020/12/06 05:40:13;;;;;;;31.75;27.80;;;;;;;;;;4940186;29;20177;-77
2020/12/06 05:42:41;;;;;;;27.88;25.02;;;;;;;;;;4957038;29;20146;-77
2020/12/06 05:45:08;;;;;;;32.35;28.20;;;;;;;;;;4940393;29;20190;-78
2020/12/06 05:47:34;;;;;;;28.33;25.33;;;;;;;;;;4957198;28;20256;-78
2020/12/06 05:50:00;;;;;;;32.38;27.23;;;;;;;;;;4939932;29;20336;-77
2020/12/06 05:52:30;;;;;;;36.38;27.98;;;;;;;;;;4957715;28;20166;-78
2020/12/06 05:54:57;;;;;;;32.63;29.02;;;;;;;;;;4958433;28;20190;-77
2020/12/06 05:57:27;;;;;;;37.78;27.67;;;;;;;;;;4961232;28;20182;-77
2020/12/06 05:59:55;;;;;;;35.70;27.17;;;;;;;;;;4945006;29;20245;-77
2020/12/06 06:02:21;;;;;;;31.25;27.90;;;;;;;;;;4960169;29;20530;-77
2020/12/06 06:04:49;;;;;;;30.25;26.38;;;;;;;;;;4944616;28;20174;-77
2020/12/06 06:07:22;;;;;;;36.17;30.02;;;;;;;;;;4961659;29;20198;-77
2020/12/06 06:09:58;;;;;;;32.53;26.23;;;;;;;;;;4944165;29;20686;-77
2020/12/06 06:12:24;;;;;;;32.67;27.60;;;;;;;;;;4961855;29;20153;-77
2020/12/06 06:14:57;;;;;;;29.80;25.67;;;;;;;;;;4944174;28;20237;-77
2020/12/06 06:17:25;;;;;;;31.65;27.65;;;;;;;;;;4961625;29;20161;-77
2020/12/06 06:19:51;;;;;;;30.08;26.13;;;;;;;;;;4961466;29;20162;-77
2020/12/06 06:22:20;;;;;;;30.17;26.30;;;;;;;;;;4960064;29;20166;-77
2020/12/06 06:24:47;;;;;;;29.90;25.73;;;;;;;;;;4942563;28;20177;-77
2020/12/06 06:27:14;;;;;;;31.33;24.08;;;;;;;;;;4960796;28;20181;-77
2020/12/06 06:29:40;;;;;;;28.42;25.33;;;;;;;;;;4943528;29;20280;-77
2020/12/06 06:32:07;;;;;;;30.80;27.27;;;;;;;;;;4943027;29;20193;-77
2020/12/06 06:34:33;;;;;;;33.95;27.58;;;;;;;;;;4943715;29;20286;-77
2020/12/06 06:37:00;;;;;;;36.75;25.83;;;;;;;;;;4960746;28;20595;-77
2020/12/06 06:39:26;;;;;;;30.50;25.48;;;;;;;;;;4960136;28;20166;-77
2020/12/06 06:41:59;;;;;;;33.42;27.85;;;;;;;;;;4941961;29;20213;-77
2020/12/06 06:44:25;;;;;;;32.75;29.23;;;;;;;;;;4959510;28;20170;-79
2020/12/06 06:46:52;;;;;;;30.75;26.10;;;;;;;;;;4942661;29;20190;-77
2020/12/06 06:49:19;;;;;;;31.20;26.08;;;;;;;;;;4959526;28;20549;-77
2020/12/06 06:51:54;;;;;;;29.50;26.08;;;;;;;;;;4958938;29;20225;-76
2020/12/06 06:54:28;;;;;;;31.83;24.75;;;;;;;;;;4959181;29;20556;-77
2020/12/06 06:56:54;;;;;;;36.17;28.90;;;;;;;;;;4958541;28;20610;-77
2020/12/06 06:59:37;;;;;;;33.08;27.83;;;;;;;;;;4959046;29;20197;-76
2020/12/06 07:02:04;;;;;;;37.65;29.30;;;;;;;;;;4959304;29;20249;-77
2020/12/06 07:04:30;;;;;;;28.48;25.10;;;;;;;;;;4958885;28;20225;-77
2020/12/06 07:06:56;;;;;;;31.90;27.70;;;;;;;;;;4959660;28;20186;-78
2020/12/06 07:09:24;;;;;;;37.00;29.80;;;;;;;;;;4926280;29;20209;-77
2020/12/06 07:11:50;;;;;;;30.85;25.58;;;;;;;;;;4942073;29;20209;-76
2020/12/06 07:14:17;;;;;;;32.97;27.75;;;;;;;;;;4958756;28;20181;-76
2020/12/06 07:16:43;;;;;;;34.10;26.92;;;;;;;;;;4958586;28;20186;-76
2020/12/06 07:19:09;;;;;;;29.17;25.48;;;;;;;;;;4941143;29;20754;-76
2020/12/06 07:21:36;;;;;;;28.42;24.67;;;;;;;;;;4942001;29;20209;-76
2020/12/06 07:24:03;;;;;;;27.15;24.13;;;;;;;;;;4959476;29;20238;-75
2020/12/06 07:26:29;;;;;;;30.83;23.13;;;;;;;;;;4959018;28;20197;-76
2020/12/06 07:28:56;;;;;;;35.50;25.75;;;;;;;;;;4941190;29;20620;-77
2020/12/06 07:31:22;;;;;;;27.80;24.90;;;;;;;;;;4958821;28;20162;-77
2020/12/06 07:33:48;;;;;;;26.70;24.05;;;;;;;;;;4941324;29;20464;-77
2020/12/06 07:36:15;;;;;;;27.80;22.05;;;;;;;;;;4941039;29;20257;-77
2020/12/06 07:38:41;;;;;;;24.45;21.38;;;;;;;;;;4941686;29;20206;-77
2020/12/06 07:41:07;;;;;;;26.58;24.05;;;;;;;;;;4941819;29;20202;-78
2020/12/06 07:43:34;;;;;;;26.40;23.77;;;;;;;;;;4941443;29;20198;-77
2020/12/06 07:46:20;;;;;;;24.95;21.92;;;;;;;;;;4941781;29;20488;-78
2020/12/06 07:48:47;;;;;;;31.85;22.77;;;;;;;;;;4943515;29;20182;-77
2020/12/06 07:51:13;;;;;;;27.03;22.77;;;;;;;;;;4941591;29;20587;-77
2020/12/06 07:53:46;;;;;;;26.37;22.20;;;;;;;;;;4958462;29;20548;-77
2020/12/06 07:56:12;;;;;;;25.40;20.63;;;;;;;;;;4942703;29;20445;-78
2020/12/06 07:58:43;;;;;;;34.78;23.70;;;;;;;;;;4958528;28;20545;-77
2020/12/06 08:01:10;;;;;;;23.30;20.73;;;;;;;;;;4958649;29;20162;-77
2020/12/06 08:03:36;;;;;;;20.70;18.60;;;;;;;;;;4941122;29;20449;-77
2020/12/06 08:06:03;;;;;;;24.80;19.07;;;;;;;;;;4941265;29;20433;-78
2020/12/06 08:08:34;;;;;;;23.57;21.30;;;;;;;;;;4958218;29;20456;-78
2020/12/06 08:11:01;;;;;;;22.67;19.43;;;;;;;;;;4959599;29;20430;-77
2020/12/06 08:13:28;;;;;;;25.70;20.07;;;;;;;;;;4957678;28;20929;-77
2020/12/06 08:15:54;;;;;;;24.80;19.38;;;;;;;;;;4957784;28;20822;-76
2020/12/06 08:18:20;;;;;;;26.73;21.67;;;;;;;;;;4956074;28;20178;-76
2020/12/06 08:20:53;;;;;;;21.67;19.37;;;;;;;;;;4939925;29;20170;-77
2020/12/06 08:23:33;;;;;;;21.17;19.00;;;;;;;;;;4941063;29;20471;-78
2020/12/06 08:25:59;;;;;;;23.20;20.83;;;;;;;;;;4940448;29;21003;-76
2020/12/06 08:28:25;;;;;;;21.27;18.80;;;;;;;;;;4957961;28;20512;-77
2020/12/06 08:30:51;;;;;;;22.33;19.23;;;;;;;;;;4939717;29;20973;-76
2020/12/06 08:33:34;;;;;;;;;;;;;;;;;;;;;
2020/12/06 08:36:01;;;;;;;20.77;18.43;;;;;;;;;;4957426;28;20449;-76
2020/12/06 08:38:27;;;;;;;24.37;19.83;;;;;;;;;;4940694;29;20497;-78
2020/12/06 08:40:58;;;;;;;20.87;18.87;;;;;;;;;;4958641;29;20776;-77
2020/12/06 08:43:24;;;;;;;24.47;20.60;;;;;;;;;;4940385;29;20433;-76
2020/12/06 08:46:12;;;;;;;22.27;18.83;;;;;;;;;;4957782;28;20438;-77
2020/12/06 08:48:39;;;;;;;22.57;20.17;;;;;;;;;;4957501;29;20469;-77
2020/12/06 08:51:05;;;;;;;21.63;17.90;;;;;;;;;;4957743;28;20441;-76
2020/12/06 08:53:44;;;;;;;20.97;18.87;;;;;;;;;;4939852;29;20508;-77
2020/12/06 08:56:28;;;;;;;21.70;17.97;;;;;;;;;;4956510;28;20914;-77
2020/12/06 08:58:55;;;;;;;21.37;17.83;;;;;;;;;;4939471;29;20421;-77
2020/12/06 09:01:21;;;;;;;21.47;19.10;;;;;;;;;;4938688;29;20449;-77
2020/12/06 09:03:48;;;;;;;19.83;16.90;;;;;;;;;;4939167;29;20440;-77
2020/12/06 09:06:17;;;;;;;21.40;19.20;;;;;;;;;;4939496;29;20432;-77
2020/12/06 09:08:44;;;;;;;24.40;18.13;;;;;;;;;;4956852;29;20440;-77
2020/12/06 09:11:20;;;;;;;23.10;19.40;;;;;;;;;;4939418;29;20417;-77
2020/12/06 09:13:46;;;;;;;19.37;16.23;;;;;;;;;;4939758;29;20450;-77
2020/12/06 09:16:13;;;;;;;20.50;18.40;;;;;;;;;;4958572;28;20485;-78
2020/12/06 09:18:39;;;;;;;17.70;15.97;;;;;;;;;;4957279;29;20404;-77
2020/12/06 09:21:06;;;;;;;21.67;19.33;;;;;;;;;;4923801;29;20422;-77
2020/12/06 09:23:33;;;;;;;24.03;18.30;;;;;;;;;;4940773;29;20456;-78
2020/12/06 09:26:02;;;;;;;23.70;17.97;;;;;;;;;;4958188;28;20937;-77
2020/12/06 09:28:29;;;;;;;24.23;20.50;;;;;;;;;;4956913;28;20445;-77
2020/12/06 09:30:58;;;;;;;20.40;17.90;;;;;;;;;;4939770;29;20378;-78
2020/12/06 09:33:24;;;;;;;21.10;17.83;;;;;;;;;;4939992;29;20444;-78
2020/12/06 09:35:50;;;;;;;21.23;18.93;;;;;;;;;;4940076;29;20957;-77
2020/12/06 09:38:17;;;;;;;21.27;18.90;;;;;;;;;;4941373;29;20461;-77
2020/12/06 09:40:43;;;;;;;19.03;16.63;;;;;;;;;;4926549;29;20425;-78
2020/12/06 09:43:13;;;;;;;21.57;19.00;;;;;;;;;;4957094;28;20460;-78
2020/12/06 09:45:41;;;;;;;21.77;17.67;;;;;;;;;;4960667;28;20513;-78
2020/12/06 09:48:07;;;;;;;20.87;17.80;;;;;;;;;;4942762;29;20806;-78
2020/12/06 09:50:33;;;;;;;18.60;16.20;;;;;;;;;;4943355;29;20735;-78
2020/12/06 09:53:02;;;;;;;23.50;20.50;;;;;;;;;;4960630;29;20472;-78
2020/12/06 09:55:29;;;;;;;19.13;17.23;;;;;;;;;;4957204;28;20418;-76
2020/12/06 09:57:58;;;;;;;21.90;19.60;;;;;;;;;;4957507;28;20424;-76
2020/12/06 10:00:24;;;;;;;18.67;16.20;;;;;;;;;;4940273;29;20422;-79
2020/12/06 10:02:50;;;;;;;18.53;16.73;;;;;;;;;;4941406;29;20391;-76
2020/12/06 10:05:17;;;;;;;18.60;16.50;;;;;;;;;;4923131;29;20984;-77
2020/12/06 10:07:46;;;;;;;20.50;16.13;;;;;;;;;;4939562;29;20509;-75
2020/12/06 10:10:12;;;;;;;148.73;112.43;;;;;;;;;;4938112;29;20425;-76
2020/12/06 10:12:38;;;;;;;23.00;20.20;;;;;;;;;;4938402;29;20934;-76
2020/12/06 10:15:05;;;;;;;19.40;17.30;;;;;;;;;;4955756;28;20946;-77
2020/12/06 10:17:31;;;;;;;19.63;17.63;;;;;;;;;;4956016;29;20402;-77
2020/12/06 10:19:58;;;;;;;16.77;15.07;;;;;;;;;;4955956;29;20410;-77
2020/12/06 10:22:24;;;;;;;18.97;16.67;;;;;;;;;;4955383;29;20415;-77
2020/12/06 10:24:51;;;;;;;18.67;16.80;;;;;;;;;;4938431;28;20414;-76
2020/12/06 10:27:17;;;;;;;19.27;17.20;;;;;;;;;;4956815;28;20903;-76
2020/12/06 10:29:43;;;;;;;16.70;15.00;;;;;;;;;;4956247;28;20955;-76
2020/12/06 10:32:19;;;;;;;;;;;;;;;;;;;;;
2020/12/06 10:34:46;;;;;;;15.47;13.83;;;;;;;;;;4956170;28;20395;-76
2020/12/06 10:37:12;;;;;;;20.10;14.53;;;;;;;;;;4956168;29;20420;-77
2020/12/06 10:39:38;;;;;;;17.90;15.80;;;;;;;;;;4955911;28;20965;-76
2020/12/06 10:42:13;;;;;;;15.73;14.23;;;;;;;;;;4957332;28;20465;-76
2020/12/06 10:44:39;;;;;;;15.93;14.30;;;;;;;;;;4959545;28;20400;-77
2020/12/06 10:47:06;;;;;;;15.20;13.57;;;;;;;;;;4959957;29;20754;-77
2020/12/06 10:49:32;;;;;;;18.73;15.73;;;;;;;;;;4958810;29;20447;-77
2020/12/06 10:51:58;;;;;;;18.60;14.33;;;;;;;;;;4958549;29;20761;-76
2020/12/06 10:54:24;;;;;;;16.13;14.50;;;;;;;;;;4941235;29;20421;-75
2020/12/06 10:56:50;;;;;;;15.80;14.30;;;;;;;;;;4958635;28;20437;-76
2020/12/06 10:59:16;;;;;;;15.43;13.83;;;;;;;;;;4958974;28;20559;-76
2020/12/06 11:01:42;;;;;;;15.87;14.30;;;;;;;;;;4958574;29;20424;-78
2020/12/06 11:04:09;;;;;;;16.80;13.23;;;;;;;;;;4925319;29;20417;-76
2020/12/06 11:06:35;;;;;;;20.40;16.07;;;;;;;;;;4958806;28;21005;-77
2020/12/06 11:09:01;;;;;;;16.30;14.70;;;;;;;;;;4958682;29;20516;-77
2020/12/06 11:11:27;;;;;;;14.50;13.20;;;;;;;;;;4941580;29;20414;-76
2020/12/06 11:13:53;;;;;;;14.53;13.13;;;;;;;;;;4958943;29;20409;-78
2020/12/06 11:16:21;;;;;;;16.27;13.70;;;;;;;;;;4958772;28;20880;-77
2020/12/06 11:18:48;;;;;;;15.93;14.00;;;;;;;;;;4941475;29;20464;-76
2020/12/06 11:21:15;;;;;;;15.23;13.83;;;;;;;;;;4958278;29;20480;-77
2020/12/06 11:23:42;;;;;;;18.27;14.80;;;;;;;;;;4958731;29;20420;-76
2020/12/06 11:26:08;;;;;;;20.60;18.40;;;;;;;;;;4959436;28;20871;-77
2020/12/06 11:28:34;;;;;;;15.30;12.20;;;;;;;;;;4958640;28;20543;-77
2020/12/06 11:31:13;;;;;;;;;;;;;;;;;;;;;
2020/12/06 11:33:40;;;;;;;14.90;13.40;;;;;;;;;;4958771;29;20410;-77
2020/12/06 11:36:06;;;;;;;15.23;13.90;;;;;;;;;;4941841;29;20525;-77
2020/12/06 11:38:32;;;;;;;15.30;13.80;;;;;;;;;;4959909;28;20420;-78
2020/12/06 11:40:58;;;;;;;14.17;12.73;;;;;;;;;;4958938;29;20386;-77
2020/12/06 11:43:24;;;;;;;13.50;12.20;;;;;;;;;;4958731;28;20421;-78
2020/12/06 11:45:51;;;;;;;15.47;13.27;;;;;;;;;;4941446;29;20449;-77
2020/12/06 11:48:20;;;;;;;16.73;14.23;;;;;;;;;;4959355;29;20463;-79
2020/12/06 11:50:46;;;;;;;15.57;13.13;;;;;;;;;;4958688;28;20909;-77
2020/12/06 11:53:13;;;;;;;13.90;12.60;;;;;;;;;;4958365;28;20406;-77
2020/12/06 11:55:42;;;;;;;17.20;12.87;;;;;;;;;;4925068;29;20456;-77
2020/12/06 11:58:11;;;;;;;14.47;12.97;;;;;;;;;;4941720;29;20468;-77
2020/12/06 12:00:37;;;;;;;13.27;12.10;;;;;;;;;;4957750;28;20532;-77
2020/12/06 12:03:03;;;;;;;14.73;13.23;;;;;;;;;;4958535;28;20862;-77
2020/12/06 12:05:29;;;;;;;15.17;13.13;;;;;;;;;;4940514;29;20941;-76
2020/12/06 12:07:55;;;;;;;20.13;18.03;;;;;;;;;;4940943;29;20401;-77
2020/12/06 12:10:21;;;;;;;13.53;12.33;;;;;;;;;;4941245;29;20451;-77
2020/12/06 12:12:50;;;;;;;22.73;16.23;;;;;;;;;;4957485;28;20417;-77
2020/12/06 12:15:17;;;;;;;13.43;11.63;;;;;;;;;;4940210;29;20944;-77
2020/12/06 12:17:43;;;;;;;14.33;12.83;;;;;;;;;;4955842;28;20437;-77
2020/12/06 12:20:09;;;;;;;16.07;14.37;;;;;;;;;;4939978;29;20493;-77
2020/12/06 12:22:35;;;;;;;20.30;17.10;;;;;;;;;;4924183;29;20405;-77
2020/12/06 12:25:01;;;;;;;14.60;12.83;;;;;;;;;;4957826;28;20429;-77
2020/12/06 12:27:27;;;;;;;16.00;13.80;;;;;;;;;;4956856;29;20426;-78
2020/12/06 12:29:54;;;;;;;15.00;13.70;;;;;;;;;;4939714;29;20450;-77
2020/12/06 12:32:20;;;;;;;13.47;12.03;;;;;;;;;;4957185;29;20429;-77
2020/12/06 12:34:46;;;;;;;16.90;15.40;;;;;;;;;;4939710;28;20414;-77
2020/12/06 12:37:15;;;;;;;16.23;13.40;;;;;;;;;;4956538;28;20409;-77
2020/12/06 12:39:41;;;;;;;15.17;13.50;;;;;;;;;;4957357;28;20405;-77
2020/12/06 12:42:13;;;;;;;14.00;12.00;;;;;;;;;;4940211;29;20441;-78
2020/12/06 12:44:39;;;;;;;16.17;13.00;;;;;;;;;;4957601;28;20735;-76
2020/12/06 12:47:06;;;;;;;18.73;14.30;;;;;;;;;;4940090;29;20508;-76
2020/12/06 12:49:32;;;;;;;14.10;12.67;;;;;;;;;;4923971;29;20473;-77
2020/12/06 12:51:59;;;;;;;15.13;13.80;;;;;;;;;;4939844;29;20532;-78
2020/12/06 12:54:26;;;;;;;14.53;13.13;;;;;;;;;;4940070;29;20437;-76
2020/12/06 12:56:52;;;;;;;13.90;11.70;;;;;;;;;;4939582;29;20451;-77
2020/12/06 12:59:18;;;;;;;14.87;13.17;;;;;;;;;;4940559;29;20418;-78
2020/12/06 13:01:44;;;;;;;18.87;16.40;;;;;;;;;;4956927;28;20822;-76
2020/12/06 13:04:11;;;;;;;14.63;13.33;;;;;;;;;;4958003;28;20410;-77
2020/12/06 13:06:37;;;;;;;12.50;11.20;;;;;;;;;;4956916;28;20501;-77
2020/12/06 13:09:04;;;;;;;23.20;12.97;;;;;;;;;;4939867;29;20449;-77
2020/12/06 13:11:42;;;;;;;14.47;13.17;;;;;;;;;;4940103;29;20754;-77
2020/12/06 13:14:11;;;;;;;15.00;13.50;;;;;;;;;;4926344;29;20429;-78
2020/12/06 13:16:37;;;;;;;15.17;13.57;;;;;;;;;;4957220;28;20488;-78
2020/12/06 13:19:05;;;;;;;14.53;13.23;;;;;;;;;;4957197;28;20500;-76
2020/12/06 13:21:31;;;;;;;15.27;13.67;;;;;;;;;;4956732;29;20902;-78
2020/12/06 13:23:57;;;;;;;16.53;14.97;;;;;;;;;;4955878;28;20405;-76
2020/12/06 13:26:23;;;;;;;13.63;12.30;;;;;;;;;;4956132;28;20488;-78
2020/12/06 13:28:50;;;;;;;16.73;11.67;;;;;;;;;;4957750;29;20496;-77
2020/12/06 13:31:17;;;;;;;13.77;12.37;;;;;;;;;;4960351;28;20859;-78
2020/12/06 13:33:43;;;;;;;13.93;12.73;;;;;;;;;;4957234;29;20409;-78
2020/12/06 13:36:09;;;;;;;13.90;12.50;;;;;;;;;;4939286;29;20461;-77
2020/12/06 13:38:36;;;;;;;13.87;12.40;;;;;;;;;;4956127;29;20418;-78
2020/12/06 13:41:02;;;;;;;15.30;13.83;;;;;;;;;;4939584;29;20444;-77
2020/12/06 13:43:28;;;;;;;13.80;12.43;;;;;;;;;;4939557;29;20482;-77
2020/12/06 13:45:54;;;;;;;15.03;13.60;;;;;;;;;;4922836;29;20591;-77
2020/12/06 13:48:20;;;;;;;15.13;13.57;;;;;;;;;;4956623;28;20471;-77
2020/12/06 13:50:46;;;;;;;15.53;13.97;;;;;;;;;;4956734;29;20464;-77
2020/12/06 13:53:12;;;;;;;15.97;14.37;;;;;;;;;;4956091;29;20404;-77
2020/12/06 13:55:39;;;;;;;19.73;15.60;;;;;;;;;;4956553;28;20440;-77
2020/12/06 13:58:05;;;;;;;17.13;15.27;;;;;;;;;;4956327;29;20451;-77
2020/12/06 14:00:31;;;;;;;16.90;15.13;;;;;;;;;;4956062;28;20405;-76
2020/12/06 14:02:57;;;;;;;17.97;15.50;;;;;;;;;;4956361;29;20499;-77
2020/12/06 14:05:23;;;;;;;17.43;15.90;;;;;;;;;;4956325;28;20435;-79
2020/12/06 14:07:49;;;;;;;17.50;14.73;;;;;;;;;;4938617;29;20497;-77
2020/12/06 14:10:16;;;;;;;20.20;15.90;;;;;;;;;;4939627;29;20406;-78
2020/12/06 14:12:42;;;;;;;19.73;14.97;;;;;;;;;;4956294;29;20420;-77
2020/12/06 14:15:11;;;;;;;19.37;16.53;;;;;;;;;;4938722;29;20736;-77
2020/12/06 14:17:37;;;;;;;18.40;15.63;;;;;;;;;;4958332;28;20410;-76
2020/12/06 14:20:04;;;;;;;20.37;15.90;;;;;;;;;;4942550;29;20429;-77